Time;durP1;ratioP1;P1;durP2;ratioP2;P2;SDS_P1;SDS_P2;PMS_P1;PMS_P2;Temp;Humidity;BMP_temperature;BMP_pressure;BME280_temperature;BME280_humidity;BME280_pressure;Samples;Min_cycle;Max_cycle;Signal;HPM_P1;HPM_P2
2022/03/03 00:02:24;;;;;;;26.20;18.40;;;-0.30;99.90;;;;;;5074134;28;20204;-70
2022/03/03 00:04:50;;;;;;;32.95;19.38;;;-0.30;99.90;;;;;;5073578;28;20587;-70
2022/03/03 00:07:18;;;;;;;28.08;18.52;;;-0.40;99.90;;;;;;5072369;28;20216;-70
2022/03/03 00:09:45;;;;;;;28.52;19.23;;;-0.40;99.90;;;;;;5073999;28;20202;-70
2022/03/03 00:12:11;;;;;;;31.00;17.90;;;-0.40;99.90;;;;;;5074244;28;20200;-70
2022/03/03 00:14:37;;;;;;;29.17;18.67;;;-0.40;99.90;;;;;;5073413;28;20203;-70
2022/03/03 00:17:04;;;;;;;30.85;20.08;;;-0.40;99.90;;;;;;5075382;28;20211;-70
2022/03/03 00:19:30;;;;;;;31.92;19.02;;;-0.40;99.90;;;;;;5074912;28;20208;-70
2022/03/03 00:21:57;;;;;;;29.95;17.38;;;-0.40;99.90;;;;;;5074979;28;20208;-70
2022/03/03 00:24:23;;;;;;;30.05;20.02;;;-0.40;99.90;;;;;;5074768;28;20589;-70
2022/03/03 00:26:50;;;;;;;25.15;17.40;;;-0.40;99.90;;;;;;5074580;28;20234;-71
2022/03/03 00:29:17;;;;;;;25.58;17.45;;;-0.50;99.90;;;;;;5073471;28;20219;-70
2022/03/03 00:31:43;;;;;;;30.85;19.50;;;-0.40;99.90;;;;;;5075038;28;20200;-70
2022/03/03 00:34:09;;;;;;;24.33;17.40;;;-0.30;99.90;;;;;;5074159;28;20200;-70
2022/03/03 00:36:36;;;;;;;32.17;18.73;;;-0.30;99.90;;;;;;5074093;28;20226;-71
2022/03/03 00:39:04;;;;;;;29.10;19.42;;;-0.30;99.90;;;;;;5073568;28;20219;-71
2022/03/03 00:41:30;;;;;;;27.45;18.48;;;-0.20;99.90;;;;;;5073044;28;20613;-71
2022/03/03 00:43:57;;;;;;;22.50;16.02;;;-0.20;99.90;;;;;;5073233;28;20196;-71
2022/03/03 00:46:25;;;;;;;28.17;17.98;;;-0.20;99.90;;;;;;5077364;28;20281;-70
2022/03/03 00:48:55;;;;;;;25.00;18.60;;;-0.10;99.90;;;;;;5077317;28;20414;-71
2022/03/03 00:51:22;;;;;;;29.95;18.77;;;-0.10;99.90;;;;;;5077475;28;20286;-71
2022/03/03 00:53:50;;;;;;;24.40;16.80;;;0.00;99.90;;;;;;5077104;28;20577;-71
2022/03/03 00:56:17;;;;;;;26.27;17.15;;;0.00;99.90;;;;;;5077131;28;20305;-71
2022/03/03 00:58:45;;;;;;;24.45;16.48;;;0.00;99.90;;;;;;5076685;28;20211;-71
2022/03/03 01:01:12;;;;;;;28.10;18.15;;;0.10;99.90;;;;;;5077017;28;20226;-71
2022/03/03 01:03:38;;;;;;;30.13;17.65;;;0.10;99.90;;;;;;5077329;28;20234;-70
2022/03/03 01:06:04;;;;;;;29.73;19.25;;;0.00;99.90;;;;;;5076591;28;20635;-71
2022/03/03 01:08:31;;;;;;;35.45;20.40;;;-0.10;99.90;;;;;;5076604;28;20211;-71
2022/03/03 01:10:58;;;;;;;24.73;18.20;;;-0.20;99.90;;;;;;5077697;28;20211;-71
2022/03/03 01:13:24;;;;;;;30.20;18.95;;;-0.30;99.90;;;;;;5078302;28;20207;-71
2022/03/03 01:15:53;;;;;;;28.08;18.52;;;-0.40;99.90;;;;;;5078927;28;20690;-70
2022/03/03 01:18:20;;;;;;;33.60;20.42;;;-0.50;99.90;;;;;;5078798;28;20200;-71
2022/03/03 01:20:46;;;;;;;32.70;18.40;;;-0.60;99.90;;;;;;5078919;28;20302;-71
2022/03/03 01:23:14;;;;;;;30.73;19.35;;;-0.70;99.90;;;;;;5077407;28;20211;-71
2022/03/03 01:25:41;;;;;;;26.25;18.35;;;-0.70;99.90;;;;;;5078797;28;20291;-70
2022/03/03 01:28:07;;;;;;;30.23;17.55;;;-0.70;99.90;;;;;;5077559;28;20211;-70
2022/03/03 01:30:34;;;;;;;27.38;17.98;;;-0.70;99.90;;;;;;5078533;28;20295;-71
2022/03/03 01:33:00;;;;;;;28.25;18.27;;;-0.60;99.90;;;;;;5078588;28;20249;-70
2022/03/03 01:35:29;;;;;;;27.77;18.92;;;-0.70;99.90;;;;;;5078091;28;20224;-71
2022/03/03 01:37:56;;;;;;;32.38;19.27;;;-0.80;99.90;;;;;;5078387;28;20204;-70
2022/03/03 01:40:23;;;;;;;28.52;18.10;;;-0.80;99.90;;;;;;5078375;28;20206;-71
2022/03/03 01:42:51;;;;;;;28.80;18.27;;;-0.90;99.90;;;;;;5078027;28;20196;-71
2022/03/03 01:45:17;;;;;;;26.08;18.05;;;-0.90;99.90;;;;;;5077284;28;20614;-70
2022/03/03 01:47:45;;;;;;;30.80;18.77;;;-0.90;99.90;;;;;;5077815;28;20200;-70
2022/03/03 01:50:11;;;;;;;26.27;17.70;;;-0.80;99.90;;;;;;5078540;28;20196;-71
2022/03/03 01:52:38;;;;;;;25.40;18.63;;;-0.80;99.90;;;;;;5078468;28;20192;-69
2022/03/03 01:55:06;;;;;;;28.83;19.23;;;-0.80;99.90;;;;;;5076441;28;20192;-70
2022/03/03 01:57:32;;;;;;;22.40;17.17;;;-0.80;99.90;;;;;;5077052;28;20228;-69
2022/03/03 02:00:00;;;;;;;28.58;17.98;;;-0.80;99.90;;;;;;5076721;28;20196;-69
2022/03/03 02:02:27;;;;;;;28.38;19.05;;;-0.90;99.90;;;;;;5076015;28;20200;-70
2022/03/03 02:04:54;;;;;;;23.63;16.88;;;-0.90;99.90;;;;;;5075438;28;20678;-70
2022/03/03 02:07:21;;;;;;;28.88;18.17;;;-0.90;99.90;;;;;;5077790;28;20266;-70
2022/03/03 02:09:47;;;;;;;29.35;19.20;;;-0.90;99.90;;;;;;5076437;28;20208;-71
2022/03/03 02:12:14;;;;;;;28.85;18.92;;;-1.00;99.90;;;;;;5076146;28;20203;-71
2022/03/03 02:14:48;;;;;;;27.65;18.23;;;-1.00;99.90;;;;;;5075768;28;20211;-71
2022/03/03 02:17:16;;;;;;;28.02;17.58;;;-1.00;99.90;;;;;;5075835;28;20223;-71
2022/03/03 02:19:43;;;;;;;24.27;16.35;;;-1.00;99.90;;;;;;5075746;28;20199;-71
2022/03/03 02:22:10;;;;;;;26.25;17.50;;;-1.00;99.90;;;;;;5075171;28;20563;-70
2022/03/03 02:24:38;;;;;;;29.05;18.40;;;-1.00;99.90;;;;;;5075361;28;20204;-71
2022/03/03 02:27:05;;;;;;;30.67;18.10;;;-1.00;99.90;;;;;;5075551;28;20200;-70
2022/03/03 02:29:33;;;;;;;29.70;18.38;;;-1.10;99.90;;;;;;5074379;28;20207;-70
2022/03/03 02:32:00;;;;;;;25.80;18.58;;;-1.20;99.90;;;;;;5074191;28;20212;-70
2022/03/03 02:34:26;;;;;;;25.60;18.45;;;-1.30;99.90;;;;;;5075366;28;20269;-70
2022/03/03 02:36:53;;;;;;;35.97;17.33;;;-1.40;99.90;;;;;;5075185;28;20223;-71
2022/03/03 02:39:20;;;;;;;29.20;18.00;;;-1.50;99.90;;;;;;5075810;28;20236;-71
2022/03/03 02:41:46;;;;;;;29.52;18.70;;;-1.60;99.90;;;;;;5075146;28;20200;-72
2022/03/03 02:44:13;;;;;;;29.35;18.95;;;-1.70;99.90;;;;;;5075341;28;20200;-70
2022/03/03 02:46:39;;;;;;;29.55;18.10;;;-1.80;99.90;;;;;;5076285;28;20200;-71
2022/03/03 02:49:09;;;;;;;29.35;19.55;;;-1.80;99.90;;;;;;5076032;28;20266;-70
2022/03/03 02:51:37;;;;;;;30.27;19.00;;;-1.80;99.90;;;;;;5075827;28;20261;-71
2022/03/03 02:54:04;;;;;;;26.02;17.45;;;-1.70;99.90;;;;;;5075902;28;20288;-71
2022/03/03 02:56:30;;;;;;;33.70;18.23;;;-1.60;99.90;;;;;;5074285;28;20238;-71
2022/03/03 02:58:57;;;;;;;27.83;19.42;;;-1.40;99.90;;;;;;5075636;28;20204;-71
2022/03/03 03:01:23;;;;;;;30.52;19.13;;;-1.40;99.90;;;;;;5075030;28;20192;-71
2022/03/03 03:03:50;;;;;;;30.00;16.13;;;-1.40;99.90;;;;;;5075225;28;20261;-71
2022/03/03 03:06:16;;;;;;;36.25;19.23;;;-1.40;99.90;;;;;;5075517;28;20228;-71
2022/03/03 03:08:43;;;;;;;34.67;17.80;;;-1.50;99.90;;;;;;5074318;28;20208;-72
2022/03/03 03:11:09;;;;;;;29.30;18.38;;;-1.60;99.90;;;;;;5075228;28;20212;-71
2022/03/03 03:13:36;;;;;;;29.27;18.80;;;-1.50;99.90;;;;;;5075029;28;20208;-71
2022/03/03 03:16:03;;;;;;;32.08;18.33;;;-1.60;99.90;;;;;;5074869;28;20227;-71
2022/03/03 03:18:29;;;;;;;31.27;18.00;;;-1.50;99.90;;;;;;5074301;28;20207;-70
2022/03/03 03:20:56;;;;;;;27.48;17.83;;;-1.50;99.90;;;;;;5073856;28;20586;-70
2022/03/03 03:23:23;;;;;;;28.85;17.88;;;-1.50;99.90;;;;;;5074511;28;20200;-70
2022/03/03 03:25:50;;;;;;;24.45;15.70;;;-1.50;99.90;;;;;;5074049;28;20563;-71
2022/03/03 03:28:18;;;;;;;27.73;17.83;;;-1.60;99.90;;;;;;5074386;28;20204;-70
2022/03/03 03:30:45;;;;;;;32.08;18.50;;;-1.60;99.90;;;;;;5074772;28;20651;-70
2022/03/03 03:33:11;;;;;;;25.38;17.73;;;-1.70;99.90;;;;;;5073160;28;20203;-71
2022/03/03 03:35:40;;;;;;;27.67;17.02;;;-1.80;99.90;;;;;;5076003;28;20207;-69
2022/03/03 03:38:07;;;;;;;25.80;17.17;;;-1.80;99.90;;;;;;5075354;28;20647;-69
2022/03/03 03:40:34;;;;;;;26.10;16.65;;;-2.00;99.90;;;;;;5072605;28;20269;-69
2022/03/03 03:43:00;;;;;;;25.77;18.10;;;-2.10;99.90;;;;;;5073982;28;20253;-69
2022/03/03 03:45:27;;;;;;;23.20;17.63;;;-2.20;99.90;;;;;;5074759;28;20204;-70
2022/03/03 03:47:53;;;;;;;28.52;20.13;;;-2.20;99.90;;;;;;5074588;28;20199;-69
2022/03/03 03:50:21;;;;;;;32.10;19.70;;;-2.30;99.90;;;;;;5074655;28;20200;-69
2022/03/03 03:52:47;;;;;;;29.10;18.17;;;-2.30;99.90;;;;;;5076170;28;20588;-70
2022/03/03 03:55:13;;;;;;;31.30;19.13;;;-2.20;99.90;;;;;;5076961;28;20522;-70
2022/03/03 03:57:40;;;;;;;30.75;18.83;;;-2.20;99.90;;;;;;5074483;28;20216;-70
2022/03/03 04:00:12;;;;;;;27.70;17.70;;;-2.10;99.90;;;;;;5076033;28;20257;-70
2022/03/03 04:02:43;;;;;;;28.63;18.58;;;-2.00;99.90;;;;;;5075229;28;20263;-70
2022/03/03 04:05:10;;;;;;;30.17;17.67;;;-2.00;99.90;;;;;;5074933;28;20232;-70
2022/03/03 04:07:37;;;;;;;26.15;17.33;;;-2.00;99.90;;;;;;5074730;28;20691;-68
2022/03/03 04:10:04;;;;;;;27.00;18.73;;;-1.90;99.90;;;;;;5074879;28;20207;-69
2022/03/03 04:12:31;;;;;;;27.13;18.45;;;-1.80;99.90;;;;;;5075174;28;20215;-69
2022/03/03 04:14:58;;;;;;;30.05;18.38;;;-1.80;99.90;;;;;;5075589;28;20215;-69
2022/03/03 04:17:25;;;;;;;36.42;19.02;;;-1.70;99.90;;;;;;5074795;28;20257;-69
2022/03/03 04:19:51;;;;;;;25.73;17.08;;;-1.80;99.90;;;;;;5078586;28;20208;-69
2022/03/03 04:22:17;;;;;;;28.50;18.65;;;-1.80;99.90;;;;;;5077622;28;20208;-69
2022/03/03 04:24:44;;;;;;;31.23;18.02;;;-1.90;99.90;;;;;;5078137;28;20565;-69
2022/03/03 04:27:10;;;;;;;33.53;19.40;;;-1.90;99.90;;;;;;5078904;28;20257;-69
2022/03/03 04:29:37;;;;;;;25.13;16.67;;;-1.90;99.90;;;;;;5078322;28;20203;-69
2022/03/03 04:32:03;;;;;;;28.88;18.42;;;-2.00;99.90;;;;;;5078799;28;20227;-69
2022/03/03 04:34:30;;;;;;;32.97;18.38;;;-2.00;99.90;;;;;;5078572;28;20219;-68
2022/03/03 04:36:56;;;;;;;30.63;18.25;;;-2.10;99.90;;;;;;5078905;28;20613;-68
2022/03/03 04:39:24;;;;;;;29.27;17.55;;;-2.20;99.90;;;;;;5078564;28;20200;-69
2022/03/03 04:41:51;;;;;;;34.40;21.45;;;-2.30;99.90;;;;;;5078787;28;20242;-69
2022/03/03 04:44:18;;;;;;;39.33;26.00;;;-2.40;99.90;;;;;;5077976;28;20192;-69
2022/03/03 04:46:44;;;;;;;26.70;18.50;;;-2.50;99.90;;;;;;5077778;28;20208;-71
2022/03/03 04:49:12;;;;;;;34.38;21.90;;;-2.50;99.90;;;;;;5077778;28;20207;-70
2022/03/03 04:51:39;;;;;;;31.73;19.80;;;-2.50;99.90;;;;;;5075884;28;20208;-70
2022/03/03 04:54:07;;;;;;;30.48;19.27;;;-2.50;99.90;;;;;;5077262;28;20317;-71
2022/03/03 04:56:35;;;;;;;28.95;17.95;;;-2.60;99.90;;;;;;5075887;28;20220;-70
2022/03/03 04:59:01;;;;;;;28.85;18.90;;;-2.50;99.90;;;;;;5077211;28;20204;-70
2022/03/03 05:01:28;;;;;;;26.60;16.40;;;-2.60;99.90;;;;;;5076398;28;20716;-70
2022/03/03 05:03:56;;;;;;;23.90;16.92;;;-2.60;99.90;;;;;;5076194;28;20200;-70
2022/03/03 05:06:23;;;;;;;28.85;19.08;;;-2.60;99.90;;;;;;5077675;28;20224;-70
2022/03/03 05:08:49;;;;;;;31.42;17.20;;;-2.50;99.90;;;;;;5077066;28;20208;-70
2022/03/03 05:11:15;;;;;;;28.10;17.85;;;-2.50;99.90;;;;;;5076574;28;20204;-71
2022/03/03 05:13:42;;;;;;;27.02;18.58;;;-2.50;99.90;;;;;;5076207;28;20231;-70
2022/03/03 05:16:09;;;;;;;28.42;18.65;;;-2.40;99.90;;;;;;5076770;28;20204;-70
2022/03/03 05:18:36;;;;;;;28.30;17.00;;;-2.30;99.90;;;;;;5076482;28;20204;-71
2022/03/03 05:21:02;;;;;;;27.00;17.70;;;-2.20;99.90;;;;;;5076405;28;20226;-71
2022/03/03 05:23:29;;;;;;;29.05;18.50;;;-2.30;99.90;;;;;;5076116;28;20540;-71
2022/03/03 05:25:55;;;;;;;33.10;16.92;;;-2.30;99.90;;;;;;5075801;28;20200;-71
2022/03/03 05:28:25;;;;;;;28.23;17.58;;;-2.30;99.90;;;;;;5076664;28;20287;-70
2022/03/03 05:30:52;;;;;;;22.83;16.20;;;-2.40;99.90;;;;;;5076517;28;20671;-70
2022/03/03 05:33:18;;;;;;;27.88;17.23;;;-2.40;99.90;;;;;;5077120;28;20196;-70
2022/03/03 05:35:48;;;;;;;31.20;18.00;;;-2.50;99.90;;;;;;5076656;28;20659;-70
2022/03/03 05:38:14;;;;;;;26.90;16.65;;;-2.50;99.90;;;;;;5076319;28;20200;-70
2022/03/03 05:40:41;;;;;;;26.65;18.52;;;-2.60;99.90;;;;;;5076905;28;20207;-70
2022/03/03 05:43:11;;;;;;;28.02;18.52;;;-2.60;99.90;;;;;;5076822;28;20541;-70
2022/03/03 05:45:39;;;;;;;29.20;18.08;;;-2.50;99.90;;;;;;5076395;28;20219;-70
2022/03/03 05:48:05;;;;;;;25.67;16.77;;;-2.50;99.90;;;;;;5074764;28;20216;-71
2022/03/03 05:50:32;;;;;;;23.67;15.48;;;-2.50;99.90;;;;;;5076022;28;20585;-71
2022/03/03 05:53:01;;;;;;;25.67;17.30;;;-2.50;99.90;;;;;;5059326;28;20223;-70
2022/03/03 05:55:30;;;;;;;27.63;18.33;;;-2.50;99.90;;;;;;5076545;28;20562;-70
2022/03/03 05:57:59;;;;;;;31.67;17.83;;;-2.40;99.90;;;;;;5076146;28;20656;-70
2022/03/03 06:00:29;;;;;;;26.35;17.17;;;-2.40;99.90;;;;;;5076851;28;20210;-70
2022/03/03 06:02:55;;;;;;;28.15;17.85;;;-2.30;99.90;;;;;;5076749;28;20253;-70
2022/03/03 06:05:29;;;;;;;61.40;18.63;;;-2.30;99.90;;;;;;5075991;28;20236;-70
2022/03/03 06:08:03;;;;;;;31.98;19.20;;;-2.20;99.90;;;;;;5075471;28;20269;-69
2022/03/03 06:10:33;;;;;;;36.65;21.05;;;-2.10;99.90;;;;;;5075830;28;20199;-70
2022/03/03 06:13:12;;;;;;;29.35;18.00;;;-2.00;99.90;;;;;;5075824;28;20196;-70
2022/03/03 06:15:43;;;;;;;37.53;17.90;;;-1.80;99.90;;;;;;5075695;28;20176;-70
2022/03/03 06:18:11;;;;;;;30.50;18.70;;;-1.80;99.90;;;;;;5075800;28;20238;-70
2022/03/03 06:20:39;;;;;;;29.77;19.27;;;-1.80;99.90;;;;;;5075014;28;20208;-70
2022/03/03 06:23:05;;;;;;;30.17;19.23;;;-1.80;99.90;;;;;;5075426;28;20643;-71
2022/03/03 06:25:32;;;;;;;29.35;18.08;;;-1.70;99.90;;;;;;5076002;28;20314;-71
2022/03/03 06:27:58;;;;;;;34.28;20.58;;;-1.70;99.90;;;;;;5075512;28;20227;-70
2022/03/03 06:30:26;;;;;;;54.92;19.75;;;-1.70;99.90;;;;;;5077074;28;20262;-68
2022/03/03 06:32:53;;;;;;;29.05;19.20;;;-1.60;99.90;;;;;;5075166;28;20663;-68
2022/03/03 06:35:19;;;;;;;29.30;18.67;;;-1.70;99.90;;;;;;5074910;28;20204;-68
2022/03/03 06:37:45;;;;;;;29.27;17.98;;;-1.80;99.90;;;;;;5074219;28;20208;-69
2022/03/03 06:40:12;;;;;;;35.25;19.23;;;-2.10;99.90;;;;;;5075125;28;20196;-69
2022/03/03 06:42:38;;;;;;;28.38;18.33;;;-2.20;99.90;;;;;;5074900;28;20666;-69
2022/03/03 06:45:06;;;;;;;27.92;18.73;;;-2.20;99.90;;;;;;5074302;28;20594;-70
2022/03/03 06:47:34;;;;;;;31.38;18.98;;;-2.30;99.90;;;;;;5072940;28;20232;-69
2022/03/03 06:50:00;;;;;;;29.15;18.95;;;-2.20;99.90;;;;;;5073060;28;20285;-69
2022/03/03 06:52:27;;;;;;;24.88;16.80;;;-2.20;99.90;;;;;;5074670;28;20265;-69
2022/03/03 06:54:54;;;;;;;27.77;18.52;;;-2.20;99.90;;;;;;5074573;28;20218;-69
2022/03/03 06:57:22;;;;;;;28.65;17.38;;;-2.20;99.90;;;;;;5074413;28;20200;-69
2022/03/03 06:59:52;;;;;;;31.30;19.85;;;-2.30;99.90;;;;;;5074976;28;20668;-70
2022/03/03 07:02:20;;;;;;;34.28;18.20;;;-2.30;99.90;;;;;;5074874;28;20204;-70
2022/03/03 07:04:48;;;;;;;52.00;27.40;;;-2.20;99.90;;;;;;5075158;28;20239;-71
2022/03/03 07:07:14;;;;;;;40.90;27.35;;;-2.00;99.90;;;;;;5074871;28;21115;-74
2022/03/03 07:09:44;;;;;;;28.35;20.83;;;-1.80;99.90;;;;;;5074485;28;20204;-73
2022/03/03 07:12:12;;;;;;;26.75;17.90;;;-1.70;99.90;;;;;;5076161;28;20207;-74
2022/03/03 07:14:39;;;;;;;32.88;20.25;;;-1.60;99.90;;;;;;5074852;28;20207;-74
2022/03/03 07:17:12;;;;;;;38.00;21.08;;;-1.60;99.90;;;;;;5056690;28;20566;-73
2022/03/03 07:19:38;;;;;;;35.80;20.65;;;-1.40;99.90;;;;;;5074639;28;20191;-74
2022/03/03 07:22:32;;;;;;;36.50;20.92;;;-1.20;99.90;;;;;;5076498;28;20348;-74
2022/03/03 07:25:11;;;;;;;31.35;21.23;;;-1.10;99.90;;;;;;5074848;28;20639;-74
2022/03/03 07:27:45;;;;;;;36.85;20.45;;;-1.00;99.90;;;;;;5074212;28;20215;-74
2022/03/03 07:30:15;;;;;;;30.30;20.92;;;-0.80;99.90;;;;;;5074504;28;20195;-74
2022/03/03 07:32:55;;;;;;;39.80;23.08;;;-0.70;99.90;;;;;;5073951;28;20222;-74
2022/03/03 07:35:25;;;;;;;37.10;21.60;;;-0.50;99.90;;;;;;5075073;28;20183;-74
2022/03/03 07:38:12;;;;;;;47.42;22.25;;;-0.30;99.90;;;;;;5074077;28;20223;-74
2022/03/03 07:40:41;;;;;;;35.10;19.67;;;-0.20;99.90;;;;;;5074746;28;20207;-74
2022/03/03 07:43:10;;;;;;;34.88;20.67;;;-0.10;99.90;;;;;;5077129;28;20655;-74
2022/03/03 07:45:37;;;;;;;26.92;17.80;;;0.00;99.90;;;;;;5077172;28;20671;-75
2022/03/03 07:48:04;;;;;;;27.85;16.85;;;0.10;99.90;;;;;;5076727;28;20216;-75
2022/03/03 07:50:31;;;;;;;37.55;23.65;;;0.20;99.90;;;;;;5077490;28;20203;-75
2022/03/03 07:52:57;;;;;;;38.60;22.75;;;0.30;99.90;;;;;;5077959;28;20568;-75
2022/03/03 07:55:24;;;;;;;39.70;22.70;;;0.40;99.90;;;;;;5080648;28;20207;-75
2022/03/03 07:57:58;;;;;;;35.85;21.83;;;0.60;99.90;;;;;;5081598;28;20207;-74
2022/03/03 08:00:28;;;;;;;28.40;18.52;;;0.70;99.90;;;;;;5081223;28;20221;-74
2022/03/03 08:02:59;;;;;;;32.92;19.80;;;0.80;99.90;;;;;;5081183;28;20196;-74
2022/03/03 08:05:29;;;;;;;29.38;20.02;;;0.90;99.90;;;;;;5081126;28;20235;-74
2022/03/03 08:08:00;;;;;;;30.27;20.75;;;1.00;99.90;;;;;;5080456;28;20225;-74
2022/03/03 08:10:28;;;;;;;37.25;21.55;;;1.10;99.90;;;;;;5079688;28;20180;-73
2022/03/03 08:12:57;;;;;;;29.45;21.48;;;1.10;99.90;;;;;;5062845;28;20200;-73
2022/03/03 08:15:25;;;;;;;32.08;20.33;;;1.20;99.90;;;;;;5080587;28;20196;-73
2022/03/03 08:17:54;;;;;;;34.08;22.30;;;1.20;99.90;;;;;;5078407;28;20608;-73
2022/03/03 08:20:21;;;;;;;30.73;21.42;;;1.30;99.90;;;;;;5080794;28;20200;-73
2022/03/03 08:22:48;;;;;;;33.20;22.33;;;1.40;99.90;;;;;;5080902;28;20298;-74
2022/03/03 08:25:17;;;;;;;34.55;20.10;;;1.30;99.90;;;;;;5062767;28;20268;-74
2022/03/03 08:27:44;;;;;;;32.75;20.35;;;1.40;99.90;;;;;;5080787;28;20216;-74
2022/03/03 08:30:12;;;;;;;30.98;21.13;;;1.40;99.90;;;;;;5080270;28;20203;-73
2022/03/03 08:32:43;;;;;;;37.63;23.00;;;1.50;99.90;;;;;;5079724;28;20215;-74
2022/03/03 08:35:16;;;;;;;36.30;22.20;;;1.60;99.90;;;;;;5078648;28;20659;-73
2022/03/03 08:37:49;;;;;;;28.48;21.27;;;1.70;99.90;;;;;;5078941;28;20667;-73
2022/03/03 08:40:19;;;;;;;29.08;20.00;;;1.80;99.90;;;;;;5078404;28;20198;-73
2022/03/03 08:42:56;;;;;;;44.75;21.60;;;1.70;99.90;;;;;;5077154;28;20200;-73
2022/03/03 08:45:24;;;;;;;36.58;21.55;;;1.60;99.90;;;;;;5076928;28;20616;-73
2022/03/03 08:48:03;;;;;;;29.02;20.60;;;1.70;99.90;;;;;;5077962;28;20227;-73
2022/03/03 08:50:31;;;;;;;35.45;21.88;;;1.80;99.90;;;;;;5077722;28;20199;-73
2022/03/03 08:52:58;;;;;;;31.30;21.90;;;1.90;99.90;;;;;;5077839;28;20192;-73
2022/03/03 08:55:26;;;;;;;39.92;22.20;;;2.00;99.90;;;;;;5077317;28;20693;-74
2022/03/03 08:57:53;;;;;;;27.25;20.73;;;2.20;99.90;;;;;;5077832;28;20252;-74
2022/03/03 09:00:22;;;;;;;31.38;21.17;;;2.30;99.90;;;;;;5077489;28;20204;-73
2022/03/03 09:02:48;;;;;;;27.00;19.90;;;2.40;99.90;;;;;;5077238;28;20200;-74
2022/03/03 09:05:15;;;;;;;36.33;21.80;;;2.40;99.90;;;;;;5075201;28;20231;-73
2022/03/03 09:07:42;;;;;;;27.75;20.38;;;2.70;99.90;;;;;;5076630;28;20227;-74
2022/03/03 09:10:09;;;;;;;29.50;20.05;;;2.80;99.90;;;;;;5076999;28;20200;-73
2022/03/03 09:12:36;;;;;;;27.70;18.55;;;2.80;99.90;;;;;;5077141;28;20222;-74
2022/03/03 09:15:03;;;;;;;32.70;20.83;;;2.90;99.90;;;;;;5077053;28;20203;-74
2022/03/03 09:17:30;;;;;;;27.13;20.10;;;3.10;99.90;;;;;;5075403;28;20200;-73
2022/03/03 09:19:56;;;;;;;30.38;17.90;;;3.00;99.90;;;;;;5058180;28;20212;-73
2022/03/03 09:22:23;;;;;;;47.83;21.48;;;3.10;99.90;;;;;;5074973;28;20208;-74
2022/03/03 09:24:49;;;;;;;27.10;20.75;;;3.30;99.90;;;;;;5075006;28;20208;-73
2022/03/03 09:27:16;;;;;;;32.05;22.40;;;3.30;99.90;;;;;;5075975;28;20220;-73
2022/03/03 09:29:42;;;;;;;30.08;22.92;;;3.30;99.90;;;;;;5076631;28;20200;-73
2022/03/03 09:32:10;;;;;;;37.58;22.98;;;3.30;99.90;;;;;;5076245;28;20721;-73
2022/03/03 09:34:36;;;;;;;28.77;20.40;;;3.60;99.90;;;;;;5076471;28;20660;-74
2022/03/03 09:37:03;;;;;;;31.25;22.38;;;3.80;99.90;;;;;;5076317;28;20676;-73
2022/03/03 09:39:30;;;;;;;31.90;20.27;;;3.90;99.90;;;;;;5076999;28;20207;-73
2022/03/03 09:41:57;;;;;;;32.38;21.52;;;3.80;99.90;;;;;;5077454;28;20663;-73
2022/03/03 09:44:24;;;;;;;33.10;21.27;;;3.90;99.90;;;;;;5076538;28;20222;-73
2022/03/03 09:46:51;;;;;;;26.92;20.88;;;3.80;99.90;;;;;;5076651;28;20655;-73
2022/03/03 09:49:18;;;;;;;32.35;21.73;;;3.90;99.90;;;;;;5077109;28;20199;-73
2022/03/03 09:51:47;;;;;;;28.13;19.88;;;3.90;99.90;;;;;;5077642;28;20584;-73
2022/03/03 09:54:14;;;;;;;28.65;20.17;;;4.00;99.90;;;;;;5076090;28;20212;-74
2022/03/03 09:56:40;;;;;;;24.67;17.58;;;4.10;99.90;;;;;;5077148;28;20541;-74
2022/03/03 09:59:07;;;;;;;25.42;19.50;;;4.20;99.90;;;;;;5077175;28;20561;-73
2022/03/03 10:01:35;;;;;;;30.83;18.35;;;4.30;99.90;;;;;;5076428;28;20652;-74
2022/03/03 10:04:25;;;;;;;28.00;19.83;;;4.30;99.90;;;;;;5074779;28;20223;-73
2022/03/03 10:06:52;;;;;;;23.92;18.63;;;4.20;99.90;;;;;;5075552;28;20226;-74
2022/03/03 10:09:18;;;;;;;25.48;18.05;;;4.60;99.90;;;;;;5076120;28;20283;-73
2022/03/03 10:11:48;;;;;;;24.33;18.70;;;4.90;99.90;;;;;;5076751;28;20667;-73
2022/03/03 10:14:32;;;;;;;25.83;18.58;;;5.00;99.90;;;;;;5076286;28;20195;-73
2022/03/03 10:17:00;;;;;;;20.80;18.45;;;4.70;99.90;;;;;;5076432;28;20535;-74
2022/03/03 10:19:26;;;;;;;29.35;19.67;;;4.90;99.90;;;;;;5076995;28;20288;-73
2022/03/03 10:21:53;;;;;;;31.55;20.23;;;5.10;99.90;;;;;;5075906;28;20204;-73
2022/03/03 10:24:26;;;;;;;30.63;18.48;;;5.20;99.90;;;;;;5076425;28;20196;-73
2022/03/03 10:27:06;;;;;;;30.13;19.92;;;5.50;99.90;;;;;;5076494;28;20647;-73
2022/03/03 10:29:34;;;;;;;24.50;19.60;;;5.60;99.90;;;;;;5075072;28;20206;-73
2022/03/03 10:32:02;;;;;;;29.88;21.15;;;5.70;99.90;;;;;;5075859;28;20199;-73
2022/03/03 10:34:32;;;;;;;28.08;21.05;;;5.70;99.90;;;;;;5076408;28;20208;-73
2022/03/03 10:37:01;;;;;;;26.40;21.40;;;5.90;99.90;;;;;;5076469;28;20230;-73
2022/03/03 10:39:48;;;;;;;25.67;18.95;;;5.90;99.90;;;;;;5075772;28;20204;-73
2022/03/03 10:42:20;;;;;;;32.92;21.38;;;5.90;99.90;;;;;;5075524;28;20203;-73
2022/03/03 10:44:49;;;;;;;26.90;22.30;;;6.10;99.90;;;;;;5075543;28;20207;-74
2022/03/03 10:47:16;;;;;;;31.27;20.98;;;6.30;99.90;;;;;;5075459;28;20228;-73
2022/03/03 10:49:52;;;;;;;26.20;22.75;;;6.20;99.90;;;;;;5074719;28;20242;-72
2022/03/03 10:52:24;;;;;;;29.48;22.05;;;6.20;99.90;;;;;;5074750;28;20194;-73
2022/03/03 10:55:02;;;;;;;28.35;20.85;;;6.50;99.90;;;;;;5073448;28;20203;-73
2022/03/03 10:57:38;;;;;;;28.50;22.10;;;6.60;99.90;;;;;;5074922;28;20188;-73
2022/03/03 11:00:11;;;;;;;30.58;20.30;;;6.80;99.90;;;;;;5074908;28;20199;-73
2022/03/03 11:02:44;;;;;;;28.65;22.35;;;7.00;99.90;;;;;;5075895;28;20602;-72
2022/03/03 11:05:12;;;;;;;31.88;22.63;;;7.00;99.90;;;;;;5075218;28;20280;-73
2022/03/03 11:07:41;;;;;;;30.02;24.10;;;7.30;99.90;;;;;;5075980;28;20620;-73
2022/03/03 11:10:13;;;;;;;32.58;22.13;;;7.30;99.90;;;;;;5075663;28;20207;-73
2022/03/03 11:12:41;;;;;;;35.80;22.42;;;7.40;99.90;;;;;;5076232;28;20200;-73
2022/03/03 11:15:08;;;;;;;26.20;22.60;;;7.80;99.90;;;;;;5076158;28;20218;-73
2022/03/03 11:17:35;;;;;;;28.65;22.85;;;9.00;99.90;;;;;;5074233;28;20200;-72
2022/03/03 11:20:05;;;;;;;29.77;22.95;;;9.30;99.90;;;;;;5072503;28;20226;-72
2022/03/03 11:22:32;;;;;;;26.50;22.30;;;9.30;99.90;;;;;;5073616;28;20576;-72
2022/03/03 11:25:02;;;;;;;29.92;25.60;;;9.00;99.90;;;;;;5072808;28;20202;-73
2022/03/03 11:27:37;;;;;;;29.58;24.15;;;8.80;99.90;;;;;;5072802;28;20560;-73
2022/03/03 11:30:30;;;;;;;29.15;24.23;;;9.20;99.90;;;;;;5071876;28;20199;-73
2022/03/03 11:33:26;;;;;;;27.75;24.85;;;10.00;99.90;;;;;;5073609;28;20200;-72
2022/03/03 11:36:08;;;;;;;28.80;24.10;;;10.70;99.90;;;;;;5073838;28;20207;-72
2022/03/03 11:38:54;;;;;;;27.73;24.60;;;10.20;99.90;;;;;;5073733;28;21168;-72
2022/03/03 11:41:25;;;;;;;29.37;24.27;;;10.90;99.90;;;;;;5073496;28;20997;-72
2022/03/03 11:44:04;;;;;;;34.33;25.38;;;10.70;99.90;;;;;;5074339;28;20623;-72
2022/03/03 11:46:51;;;;;;;28.30;25.30;;;10.40;99.90;;;;;;5073733;28;20206;-73
2022/03/03 11:49:26;;;;;;;31.60;26.53;;;10.20;99.90;;;;;;5073417;28;20617;-73
2022/03/03 11:51:57;;;;;;;28.77;25.87;;;10.80;99.90;;;;;;5073635;28;20627;-71
2022/03/03 11:54:29;;;;;;;28.42;25.60;;;11.40;99.90;;;;;;5070819;28;20776;-72
2022/03/03 11:57:04;;;;;;;28.87;26.10;;;11.30;99.90;;;;;;5072990;28;20230;-72
2022/03/03 11:59:47;;;;;;;29.60;26.80;;;11.70;99.90;;;;;;5073426;28;20719;-71
2022/03/03 12:02:18;;;;;;;31.73;25.33;;;10.70;99.90;;;;;;5071401;28;20623;-72
2022/03/03 12:04:46;;;;;;;34.10;24.47;;;10.70;99.90;;;;;;5072247;28;21204;-71
2022/03/03 12:07:29;;;;;;;31.03;25.97;;;11.70;99.90;;;;;;5073406;28;21066;-72
2022/03/03 12:09:56;;;;;;;28.67;25.77;;;12.10;99.90;;;;;;5074185;28;20633;-73
2022/03/03 12:12:29;;;;;;;30.83;27.67;;;12.30;99.90;;;;;;5073060;28;20641;-71
2022/03/03 12:15:01;;;;;;;31.47;27.87;;;12.90;99.90;;;;;;5072931;28;20585;-73
2022/03/03 12:17:42;;;;;;;29.00;26.20;;;13.50;99.90;;;;;;5073127;28;20652;-72
2022/03/03 12:20:24;;;;;;;31.90;26.93;;;12.90;99.90;;;;;;5072545;28;20578;-72
2022/03/03 12:23:02;;;;;;;27.20;24.60;;;12.60;99.90;;;;;;5072488;28;20972;-71
2022/03/03 12:25:47;;;;;;;28.80;25.80;;;12.70;99.90;;;;;;5073375;28;20630;-71
2022/03/03 12:28:24;;;;;;;28.97;25.93;;;12.50;99.90;;;;;;5072391;28;20613;-71
2022/03/03 12:30:52;;;;;;;29.47;26.37;;;12.80;99.90;;;;;;5072955;28;20618;-71
2022/03/03 12:33:30;;;;;;;30.93;26.17;;;12.50;99.90;;;;;;5072713;28;21181;-72
2022/03/03 12:36:06;;;;;;;35.13;26.37;;;12.80;99.90;;;;;;5072999;28;20610;-72
2022/03/03 12:38:36;;;;;;;28.10;25.47;;;13.10;99.90;;;;;;5073256;28;20673;-72
2022/03/03 12:41:04;;;;;;;28.93;26.00;;;13.50;99.90;;;;;;5076123;28;20625;-72